Time;durP1;ratioP1;P1;durP2;ratioP2;P2;SDS_P1;SDS_P2;PMS_P1;PMS_P2;Temp;Humidity;BMP_temperature;BMP_pressure;BME280_temperature;BME280_humidity;BME280_pressure;Samples;Min_cycle;Max_cycle;Signal;HPM_P1;HPM_P2
2023/05/30 00:01:39;;;;;;;10.20;2.90;;;13.50;43.50;;;;;;5115886;28;20192;-83
2023/05/30 00:04:05;;;;;;;11.83;3.33;;;13.50;44.80;;;;;;5107540;28;20418;-81
2023/05/30 00:06:31;;;;;;;9.40;2.67;;;13.40;45.90;;;;;;5110876;28;21211;-81
2023/05/30 00:08:57;;;;;;;16.47;3.63;;;13.40;47.20;;;;;;5106108;28;20192;-82
2023/05/30 00:11:24;;;;;;;10.43;3.27;;;13.30;49.00;;;;;;5110544;28;20437;-82
2023/05/30 00:13:50;;;;;;;10.80;3.40;;;13.30;50.60;;;;;;5103588;28;20229;-79
2023/05/30 00:16:18;;;;;;;5.83;2.30;;;13.20;52.60;;;;;;5111496;28;20506;-81
2023/05/30 00:18:44;;;;;;;9.47;2.90;;;13.20;54.70;;;;;;5110308;28;20985;-79
2023/05/30 00:21:14;;;;;;;10.03;2.67;;;13.20;57.00;;;;;;5108445;28;20457;-83
2023/05/30 00:23:39;;;;;;;8.80;2.63;;;13.10;59.20;;;;;;5104969;28;20176;-82
2023/05/30 00:26:09;;;;;;;9.10;3.23;;;13.00;61.90;;;;;;5116253;28;20464;-83
2023/05/30 00:28:36;;;;;;;14.07;3.10;;;13.00;62.80;;;;;;5116915;28;20187;-82
2023/05/30 00:31:02;;;;;;;9.23;2.93;;;13.00;64.90;;;;;;5114567;28;20457;-82
2023/05/30 00:33:27;;;;;;;10.40;2.63;;;13.00;69.00;;;;;;5111154;28;20433;-82
2023/05/30 00:35:53;;;;;;;5.07;2.67;;;12.90;70.70;;;;;;5109194;28;20200;-82
2023/05/30 00:38:18;;;;;;;6.40;2.40;;;12.90;74.10;;;;;;5105574;28;20252;-81
2023/05/30 00:40:44;;;;;;;12.07;2.60;;;12.90;76.00;;;;;;5117441;28;20188;-83
2023/05/30 00:43:10;;;;;;;10.43;3.23;;;12.90;78.90;;;;;;5106060;28;20199;-81
2023/05/30 00:45:36;;;;;;;14.10;2.83;;;12.80;82.30;;;;;;5114844;28;20870;-80
2023/05/30 00:48:02;;;;;;;14.00;3.47;;;12.80;84.00;;;;;;5108882;28;20232;-80
2023/05/30 00:50:30;;;;;;;14.00;2.93;;;12.70;86.20;;;;;;5106419;28;20487;-81
2023/05/30 00:52:58;;;;;;;12.40;3.00;;;12.70;90.00;;;;;;5111641;28;20509;-82
2023/05/30 00:55:26;;;;;;;10.50;3.63;;;12.70;90.90;;;;;;5123079;28;20462;-79
2023/05/30 00:57:52;;;;;;;9.10;3.40;;;12.70;91.90;;;;;;5112745;28;20464;-82
2023/05/30 01:00:18;;;;;;;8.67;3.73;;;12.70;92.30;;;;;;5110887;28;20469;-81
2023/05/30 01:02:44;;;;;;;9.40;2.60;;;12.60;93.40;;;;;;5105329;28;20249;-81
2023/05/30 01:05:14;;;;;;;10.70;2.90;;;12.60;94.60;;;;;;5115043;28;20418;-82
2023/05/30 01:07:43;;;;;;;8.80;2.17;;;12.60;95.80;;;;;;5104948;28;20466;-82
2023/05/30 01:10:11;;;;;;;14.60;2.37;;;12.60;96.80;;;;;;5120460;28;20425;-80
2023/05/30 01:12:55;;;;;;;9.53;3.33;;;12.50;98.70;;;;;;5112833;28;20950;-82
2023/05/30 01:15:27;;;;;;;13.40;4.40;;;12.50;99.90;;;;;;5104586;28;20543;-82
2023/05/30 01:18:17;;;;;;;10.10;2.60;;;12.40;99.90;;;;;;5112087;28;20563;-80
2023/05/30 01:20:48;;;;;;;12.43;2.90;;;12.40;99.90;;;;;;5110724;28;20605;-81
2023/05/30 01:23:20;;;;;;;10.57;2.87;;;12.40;99.90;;;;;;5109568;28;20432;-81
2023/05/30 01:25:53;;;;;;;14.27;3.53;;;12.40;99.90;;;;;;5114886;28;20506;-81
2023/05/30 01:28:21;;;;;;;6.70;3.10;;;12.40;99.90;;;;;;5105514;28;20449;-83
2023/05/30 01:30:51;;;;;;;12.90;3.20;;;12.30;99.90;;;;;;5112024;28;20425;-83
2023/05/30 01:33:19;;;;;;;16.13;4.27;;;12.30;99.90;;;;;;5111878;28;20440;-81
2023/05/30 01:35:47;;;;;;;10.40;2.67;;;12.30;99.90;;;;;;5108274;28;20454;-81
2023/05/30 01:38:14;;;;;;;14.87;3.10;;;12.20;99.90;;;;;;5103141;28;20452;-82
2023/05/30 01:40:49;;;;;;;10.53;3.20;;;12.20;99.90;;;;;;5103976;28;20524;-81
2023/05/30 01:43:32;;;;;;;13.90;3.10;;;12.10;99.90;;;;;;5106011;28;20437;-82
2023/05/30 01:46:13;;;;;;;13.73;4.30;;;12.10;99.90;;;;;;5107116;28;20456;-81
2023/05/30 01:48:41;;;;;;;9.30;2.60;;;12.10;99.90;;;;;;5122970;27;20409;-80
2023/05/30 01:51:12;;;;;;;13.30;3.13;;;12.00;99.90;;;;;;5106429;28;20433;-82
2023/05/30 01:53:46;;;;;;;15.90;3.10;;;12.00;99.90;;;;;;5108267;28;20568;-81
2023/05/30 01:56:14;;;;;;;12.13;3.00;;;12.00;99.90;;;;;;5103537;28;20883;-83
2023/05/30 01:58:40;;;;;;;13.77;3.20;;;11.90;99.90;;;;;;5107183;28;20479;-83
2023/05/30 02:01:07;;;;;;;9.47;2.93;;;11.90;99.90;;;;;;5106765;28;20561;-83
2023/05/30 02:03:33;;;;;;;12.97;2.93;;;11.90;99.90;;;;;;5114850;28;20406;-81
2023/05/30 02:06:00;;;;;;;10.77;3.30;;;11.80;99.90;;;;;;5117440;28;20441;-82
2023/05/30 02:08:26;;;;;;;20.43;3.30;;;11.80;99.90;;;;;;5118874;28;20199;-82
2023/05/30 02:10:52;;;;;;;8.77;3.30;;;11.70;99.90;;;;;;5101401;28;20430;-82
2023/05/30 02:13:26;;;;;;;16.33;3.23;;;11.70;99.90;;;;;;5104165;28;20438;-79
2023/05/30 02:15:52;;;;;;;5.00;2.30;;;11.60;99.90;;;;;;5107548;28;20222;-79
2023/05/30 02:18:19;;;;;;;14.20;3.37;;;11.60;99.90;;;;;;5114755;28;20459;-82
2023/05/30 02:20:45;;;;;;;13.73;3.43;;;11.60;99.90;;;;;;5116608;28;20431;-81
2023/05/30 02:23:10;;;;;;;8.33;2.60;;;11.50;99.90;;;;;;5108134;28;20429;-81
2023/05/30 02:25:36;;;;;;;9.57;3.07;;;11.50;99.90;;;;;;5100999;28;20192;-80
2023/05/30 02:28:02;;;;;;;14.57;4.07;;;11.50;99.90;;;;;;5109549;28;20187;-81
2023/05/30 02:30:28;;;;;;;11.90;4.33;;;11.40;99.90;;;;;;5109183;28;20457;-82
2023/05/30 02:32:53;;;;;;;10.03;3.17;;;11.40;99.90;;;;;;5105586;28;20220;-80
2023/05/30 02:35:19;;;;;;;8.30;3.20;;;11.40;99.90;;;;;;5114034;28;20204;-81
2023/05/30 02:37:45;;;;;;;19.40;3.73;;;11.30;99.90;;;;;;5107724;28;20186;-81
2023/05/30 02:40:11;;;;;;;10.97;3.37;;;11.30;99.90;;;;;;5114590;28;20202;-81
2023/05/30 02:42:37;;;;;;;12.63;2.97;;;11.30;99.90;;;;;;5104298;28;20259;-81
2023/05/30 02:45:03;;;;;;;18.43;3.67;;;11.20;99.90;;;;;;5107010;28;20469;-80
2023/05/30 02:47:29;;;;;;;12.63;3.17;;;11.10;99.90;;;;;;5109623;28;20172;-81
2023/05/30 02:49:54;;;;;;;10.13;3.53;;;11.10;99.90;;;;;;5109386;28;20983;-81
2023/05/30 02:52:21;;;;;;;19.30;4.43;;;11.00;99.90;;;;;;5112344;28;20422;-81
2023/05/30 02:54:47;;;;;;;16.17;3.70;;;11.00;99.90;;;;;;5109604;28;20180;-81
2023/05/30 02:57:12;;;;;;;13.33;4.07;;;11.00;99.90;;;;;;5108851;28;21128;-80
2023/05/30 02:59:38;;;;;;;12.70;3.83;;;11.00;99.90;;;;;;5110522;28;20222;-82
2023/05/30 03:02:04;;;;;;;12.23;3.83;;;10.90;99.90;;;;;;5114489;28;20226;-83
2023/05/30 03:04:29;;;;;;;8.70;3.10;;;10.80;99.90;;;;;;5106118;28;20277;-82
2023/05/30 03:06:55;;;;;;;12.50;2.77;;;10.80;99.90;;;;;;5110083;28;20546;-82
2023/05/30 03:09:21;;;;;;;12.07;3.30;;;10.80;99.90;;;;;;5111317;28;20180;-82
2023/05/30 03:11:47;;;;;;;13.67;3.60;;;10.70;99.90;;;;;;5108473;28;20681;-81
2023/05/30 03:14:12;;;;;;;13.47;3.40;;;10.70;99.90;;;;;;5108917;28;20522;-82
2023/05/30 03:16:39;;;;;;;15.77;5.17;;;10.70;99.90;;;;;;5105644;28;20212;-82
2023/05/30 03:19:04;;;;;;;11.50;3.93;;;10.70;99.90;;;;;;5113466;28;20267;-82
2023/05/30 03:21:32;;;;;;;13.43;3.67;;;10.70;99.90;;;;;;5111220;28;20460;-80
2023/05/30 03:23:58;;;;;;;15.43;4.30;;;10.60;1.00;;;;;;5115876;28;20250;-79
2023/05/30 03:26:24;;;;;;;13.67;4.60;;;10.60;1.00;;;;;;5110927;28;20452;-82
2023/05/30 03:28:50;;;;;;;27.47;3.73;;;10.60;1.00;;;;;;5114667;28;20199;-81
2023/05/30 03:31:16;;;;;;;11.93;3.50;;;10.50;1.00;;;;;;5107704;28;20438;-81
2023/05/30 03:33:41;;;;;;;14.10;4.00;;;10.50;1.00;;;;;;5111519;28;20240;-83
2023/05/30 03:36:08;;;;;;;15.90;3.70;;;10.50;1.00;;;;;;5106299;28;20456;-82
2023/05/30 03:38:33;;;;;;;10.33;3.77;;;10.50;1.00;;;;;;5102537;28;20200;-82
2023/05/30 03:40:59;;;;;;;15.53;3.50;;;10.50;1.00;;;;;;5109939;28;20521;-80
2023/05/30 03:43:24;;;;;;;12.60;3.70;;;10.40;1.00;;;;;;5112279;28;20203;-81
2023/05/30 03:45:50;;;;;;;12.27;5.33;;;10.40;1.00;;;;;;5113781;28;20221;-82
2023/05/30 03:48:15;;;;;;;15.47;3.70;;;10.50;1.00;;;;;;5115070;28;20188;-84
2023/05/30 03:50:41;;;;;;;14.67;3.40;;;10.50;1.00;;;;;;5114124;28;20182;-82
2023/05/30 03:53:07;;;;;;;13.97;4.07;;;10.60;1.00;;;;;;5103703;28;20259;-82
2023/05/30 03:55:32;;;;;;;8.10;4.07;;;10.60;1.00;;;;;;5113080;28;20555;-81
2023/05/30 03:57:58;;;;;;;12.87;3.77;;;10.60;1.00;;;;;;5110049;28;20604;-81
2023/05/30 04:00:23;;;;;;;12.00;3.77;;;10.70;1.00;;;;;;5108056;28;20207;-82
2023/05/30 04:02:49;;;;;;;9.73;4.53;;;10.70;1.00;;;;;;5109298;28;20188;-82
2023/05/30 04:05:14;;;;;;;14.10;4.40;;;10.80;1.00;;;;;;5102099;28;20308;-83
2023/05/30 04:07:40;;;;;;;9.90;4.97;;;10.80;1.00;;;;;;5105545;28;20700;-79
2023/05/30 04:10:06;;;;;;;8.30;3.87;;;10.90;1.00;;;;;;5104624;28;20176;-83
2023/05/30 04:12:31;;;;;;;23.80;4.17;;;11.00;1.00;;;;;;5104446;28;20198;-82
2023/05/30 04:14:57;;;;;;;14.63;3.93;;;11.10;1.00;;;;;;5112790;28;20497;-83
2023/05/30 04:17:22;;;;;;;17.43;4.83;;;11.20;1.00;;;;;;5113175;28;20792;-83
2023/05/30 04:19:48;;;;;;;16.37;3.97;;;11.30;1.00;;;;;;5111777;28;20236;-82
2023/05/30 04:22:13;;;;;;;16.40;4.70;;;11.40;1.00;;;;;;5116014;28;20191;-83
2023/05/30 04:24:39;;;;;;;18.30;5.23;;;11.50;1.00;;;;;;5106770;28;20206;-80
2023/05/30 04:27:05;;;;;;;18.70;4.03;;;11.50;1.00;;;;;;5106890;28;20203;-83
2023/05/30 04:29:34;;;;;;;11.97;4.43;;;11.60;1.00;;;;;;5112785;28;20532;-78
2023/05/30 04:32:00;;;;;;;16.40;4.47;;;11.70;1.00;;;;;;5109562;28;20180;-81
2023/05/30 04:34:26;;;;;;;19.37;4.40;;;11.80;1.00;;;;;;5113841;28;20425;-80
2023/05/30 04:36:53;;;;;;;19.97;4.27;;;11.90;1.00;;;;;;5109440;28;20224;-82
2023/05/30 04:39:19;;;;;;;9.70;4.13;;;12.00;1.00;;;;;;5112333;28;20208;-85
2023/05/30 04:41:44;;;;;;;9.87;4.30;;;12.10;1.00;;;;;;5106911;28;20453;-82
2023/05/30 04:44:10;;;;;;;13.03;5.40;;;12.20;1.00;;;;;;5110648;28;20628;-83
2023/05/30 04:46:36;;;;;;;26.20;5.63;;;12.30;1.00;;;;;;5113049;28;20204;-82
2023/05/30 04:49:02;;;;;;;20.43;5.20;;;12.40;99.90;;;;;;5121421;28;20201;-82
2023/05/30 04:51:28;;;;;;;13.77;4.50;;;12.50;99.90;;;;;;5117484;28;20426;-83
2023/05/30 04:53:54;;;;;;;21.17;4.90;;;12.70;99.90;;;;;;5110194;28;20438;-83
2023/05/30 04:56:20;;;;;;;15.70;5.20;;;12.80;99.90;;;;;;5111558;28;20466;-80
2023/05/30 04:58:48;;;;;;;18.33;5.80;;;12.90;99.90;;;;;;5117727;28;20522;-83
2023/05/30 05:01:13;;;;;;;19.27;4.17;;;13.00;99.90;;;;;;5114228;28;20490;-82
2023/05/30 05:03:40;;;;;;;17.43;5.13;;;13.10;99.90;;;;;;5116349;28;20476;-83
2023/05/30 05:06:06;;;;;;;19.17;4.47;;;13.10;99.90;;;;;;5113871;28;20219;-83
2023/05/30 05:08:33;;;;;;;21.83;5.30;;;13.20;99.90;;;;;;5115605;28;20553;-84
2023/05/30 05:11:00;;;;;;;16.67;4.10;;;13.20;99.90;;;;;;5111728;28;20431;-82
2023/05/30 05:13:26;;;;;;;20.43;5.20;;;13.30;99.90;;;;;;5118098;28;20437;-83
2023/05/30 05:15:51;;;;;;;19.13;5.07;;;13.20;99.90;;;;;;5119098;28;20457;-82
2023/05/30 05:18:17;;;;;;;16.17;5.40;;;13.30;99.90;;;;;;5111569;28;20190;-81
2023/05/30 05:20:42;;;;;;;14.93;4.93;;;13.30;99.90;;;;;;5120616;28;20225;-81
2023/05/30 05:23:08;;;;;;;16.43;5.40;;;13.50;99.90;;;;;;5102130;28;20184;-80
2023/05/30 05:25:34;;;;;;;12.33;4.90;;;13.60;99.90;;;;;;5110420;28;20204;-82
2023/05/30 05:28:00;;;;;;;18.17;5.40;;;13.80;99.90;;;;;;5107341;28;20437;-82
2023/05/30 05:30:25;;;;;;;13.73;5.70;;;13.80;99.90;;;;;;5111489;28;20252;-78
2023/05/30 05:32:51;;;;;;;14.60;6.57;;;14.00;99.90;;;;;;5115892;28;20431;-83
2023/05/30 05:35:17;;;;;;;18.20;5.20;;;14.20;99.90;;;;;;5111743;28;20189;-81
2023/05/30 05:37:42;;;;;;;10.93;5.90;;;14.30;99.90;;;;;;5118157;28;20192;-82
2023/05/30 05:40:08;;;;;;;12.27;5.73;;;14.50;99.90;;;;;;5107788;28;20211;-81
2023/05/30 05:42:34;;;;;;;21.37;7.17;;;14.70;99.90;;;;;;5111772;28;20308;-82
2023/05/30 05:45:01;;;;;;;14.43;6.47;;;14.80;99.90;;;;;;5104487;28;20436;-82
2023/05/30 05:47:26;;;;;;;13.33;6.70;;;14.90;99.90;;;;;;5112863;28;20242;-82
2023/05/30 05:49:52;;;;;;;19.03;8.33;;;15.00;99.90;;;;;;5111514;28;20988;-81
2023/05/30 05:52:18;;;;;;;21.03;7.30;;;15.20;99.90;;;;;;5110041;28;20222;-82
2023/05/30 05:54:44;;;;;;;25.53;8.07;;;15.40;99.90;;;;;;5104778;28;20190;-81
2023/05/30 05:57:10;;;;;;;19.50;9.83;;;15.70;99.90;;;;;;5108968;28;20464;-82
2023/05/30 05:59:38;;;;;;;25.57;7.67;;;16.10;99.90;;;;;;5114056;28;20275;-83
2023/05/30 06:02:04;;;;;;;18.87;8.13;;;16.70;99.90;;;;;;5115057;28;20209;-83
2023/05/30 06:04:29;;;;;;;24.80;8.30;;;18.30;99.90;;;;;;5105245;28;20431;-84
2023/05/30 06:06:55;;;;;;;17.57;7.50;;;21.40;99.90;;;;;;5109941;28;20204;-83
2023/05/30 06:09:20;;;;;;;25.40;7.87;;;24.40;99.90;;;;;;5106739;28;20885;-83
2023/05/30 06:11:46;;;;;;;20.80;7.00;;;26.00;99.90;;;;;;5115291;28;20187;-84
2023/05/30 06:14:12;;;;;;;14.80;8.00;;;28.30;99.90;;;;;;5113741;28;20191;-82
2023/05/30 06:16:37;;;;;;;13.77;7.70;;;30.10;99.90;;;;;;5114424;28;20227;-81
2023/05/30 06:19:03;;;;;;;14.90;7.90;;;31.40;99.90;;;;;;5111566;28;20211;-84
2023/05/30 06:21:28;;;;;;;14.97;6.97;;;32.50;99.90;;;;;;5108173;28;20188;-85
2023/05/30 06:23:54;;;;;;;12.10;5.60;;;33.20;99.90;;;;;;5106411;28;20243;-86
2023/05/30 06:26:20;;;;;;;16.70;6.60;;;33.60;99.90;;;;;;5103549;27;20614;-84
2023/05/30 06:28:51;;;;;;;15.10;6.93;;;34.50;96.70;;;;;;5113663;28;20180;-84
2023/05/30 06:31:17;;;;;;;16.90;6.53;;;34.60;91.70;;;;;;5114495;28;20556;-85
2023/05/30 06:33:46;;;;;;;13.80;5.67;;;34.90;86.50;;;;;;5121610;28;20519;-85
2023/05/30 06:36:12;;;;;;;11.63;5.50;;;35.70;79.70;;;;;;5111737;28;20207;-84
2023/05/30 06:38:37;;;;;;;10.50;6.33;;;36.30;73.10;;;;;;5110590;28;20461;-83
2023/05/30 06:41:03;;;;;;;12.50;6.50;;;37.00;66.20;;;;;;5108429;28;20650;-83
2023/05/30 06:43:28;;;;;;;12.50;5.83;;;37.70;59.70;;;;;;5107233;28;20179;-84
2023/05/30 06:45:54;;;;;;;12.77;5.70;;;39.40;56.40;;;;;;5102285;28;20204;-84
2023/05/30 06:48:19;;;;;;;12.10;5.53;;;41.00;53.20;;;;;;5117734;28;20216;-84
2023/05/30 06:50:45;;;;;;;12.53;5.47;;;42.30;49.30;;;;;;5110295;28;20184;-84
2023/05/30 06:53:10;;;;;;;13.13;5.63;;;43.40;44.70;;;;;;5103034;28;20198;-85
2023/05/30 06:55:36;;;;;;;11.57;5.20;;;44.30;40.40;;;;;;5117224;28;20210;-86
2023/05/30 06:58:22;;;;;;;20.63;5.53;;;45.00;35.00;;;;;;5120608;28;20195;-84
2023/05/30 07:00:47;;;;;;;11.43;5.10;;;46.10;31.30;;;;;;5112208;27;20269;-85
2023/05/30 07:03:13;;;;;;;10.70;4.93;;;47.00;28.80;;;;;;5108355;28;20433;-83
2023/05/30 07:05:39;;;;;;;11.60;5.03;;;48.00;25.60;;;;;;5107021;28;20209;-84
2023/05/30 07:08:04;;;;;;;10.63;4.27;;;49.00;23.70;;;;;;5101650;28;20210;-84
2023/05/30 07:10:31;;;;;;;11.77;5.00;;;49.70;22.50;;;;;;5100959;28;20214;-83
2023/05/30 07:12:56;;;;;;;12.80;5.30;;;50.00;17.80;;;;;;5109666;28;20171;-83
2023/05/30 07:15:22;;;;;;;13.43;5.00;;;50.40;15.90;;;;;;5115493;28;20722;-83
2023/05/30 07:17:47;;;;;;;8.80;5.37;;;50.80;13.60;;;;;;5106769;28;20186;-83
2023/05/30 07:20:13;;;;;;;10.50;5.50;;;51.40;12.00;;;;;;5101938;28;20256;-86
2023/05/30 07:22:39;;;;;;;7.87;5.00;;;51.60;9.80;;;;;;5111449;28;20564;-83
2023/05/30 07:25:06;;;;;;;11.32;5.20;;;52.10;8.90;;;;;;5101091;28;20191;-81
2023/05/30 07:27:31;;;;;;;10.35;5.82;;;52.50;7.40;;;;;;5104492;28;20652;-84
2023/05/30 07:29:57;;;;;;;12.02;4.95;;;52.60;5.80;;;;;;5104778;28;20220;-82
2023/05/30 07:32:22;;;;;;;12.65;5.85;;;52.90;4.40;;;;;;5107762;28;20188;-82
2023/05/30 07:34:48;;;;;;;10.77;5.20;;;53.20;3.10;;;;;;5102713;28;20180;-83
2023/05/30 07:37:14;;;;;;;10.65;5.25;;;53.40;1.60;;;;;;5100693;28;20199;-83
2023/05/30 07:39:39;;;;;;;10.50;5.32;;;53.10;1.00;;;;;;5101725;28;20252;-83
2023/05/30 07:42:06;;;;;;;12.32;5.72;;;53.00;1.00;;;;;;5104847;28;20167;-83
2023/05/30 07:44:32;;;;;;;9.07;4.80;;;53.00;1.00;;;;;;5100359;28;20176;-82
2023/05/30 07:46:57;;;;;;;8.93;5.40;;;53.00;1.00;;;;;;5098962;28;20215;-84
2023/05/30 07:49:23;;;;;;;12.65;5.30;;;53.20;1.00;;;;;;5108248;28;20186;-83
2023/05/30 07:51:49;;;;;;;10.07;5.20;;;53.40;1.00;;;;;;5104969;28;20244;-84
2023/05/30 07:54:15;;;;;;;10.90;4.22;;;53.20;1.00;;;;;;5106100;28;20277;-83
2023/05/30 07:56:40;;;;;;;9.77;4.03;;;53.10;1.00;;;;;;5110198;28;20214;-83
2023/05/30 07:59:06;;;;;;;6.63;4.27;;;53.10;1.00;;;;;;5115902;28;20222;-82
2023/05/30 08:01:32;;;;;;;16.10;5.93;;;52.70;1.00;;;;;;5113119;28;20186;-84
2023/05/30 08:03:58;;;;;;;11.60;4.87;;;52.30;1.00;;;;;;5122907;28;20176;-84
2023/05/30 08:06:24;;;;;;;9.70;4.30;;;52.00;1.00;;;;;;5108475;28;20203;-84
2023/05/30 08:08:50;;;;;;;8.57;4.30;;;52.10;1.00;;;;;;5109622;28;20186;-83
2023/05/30 08:11:15;;;;;;;9.40;3.93;;;52.20;1.00;;;;;;5108186;28;20225;-83
2023/05/30 08:13:43;;;;;;;9.37;4.50;;;52.20;1.00;;;;;;5114903;28;20194;-83
2023/05/30 08:16:12;;;;;;;7.77;4.80;;;51.70;1.00;;;;;;5106656;28;20195;-83
2023/05/30 08:18:38;;;;;;;10.50;4.40;;;51.20;1.00;;;;;;5109348;28;20483;-83
2023/05/30 08:21:04;;;;;;;6.80;4.20;;;50.40;1.00;;;;;;5109341;28;20490;-83
2023/05/30 08:23:29;;;;;;;9.63;4.87;;;50.50;1.00;;;;;;5108063;28;20184;-84
2023/05/30 08:25:56;;;;;;;7.80;3.83;;;50.10;1.00;;;;;;5108404;28;20199;-83
2023/05/30 08:28:22;;;;;;;8.23;4.57;;;50.20;1.00;;;;;;5104045;28;20184;-84
2023/05/30 08:30:48;;;;;;;10.53;4.60;;;50.30;1.00;;;;;;5122855;28;20436;-85
2023/05/30 08:33:15;;;;;;;10.30;5.50;;;49.70;1.00;;;;;;5116256;28;20529;-84
2023/05/30 08:35:40;;;;;;;11.33;5.20;;;49.80;1.00;;;;;;5110312;28;20476;-83
2023/05/30 08:38:06;;;;;;;9.33;4.63;;;50.20;1.00;;;;;;5108753;28;20498;-83
2023/05/30 08:40:34;;;;;;;14.73;5.70;;;50.20;1.00;;;;;;5112010;28;20214;-86
2023/05/30 08:43:00;;;;;;;8.80;4.77;;;50.40;1.00;;;;;;5107987;28;20176;-85
2023/05/30 08:45:26;;;;;;;10.60;5.33;;;50.50;1.00;;;;;;5105222;28;20453;-82
2023/05/30 08:47:56;;;;;;;8.30;5.00;;;50.20;1.00;;;;;;5106332;28;20190;-84
2023/05/30 08:50:24;;;;;;;10.60;5.87;;;49.70;1.00;;;;;;5109293;28;20815;-84
2023/05/30 08:52:54;;;;;;;14.23;5.80;;;49.50;1.00;;;;;;5112488;28;20421;-84
2023/05/30 08:55:45;;;;;;;11.33;5.70;;;49.40;1.00;;;;;;5105950;28;20438;-84
2023/05/30 08:58:15;;;;;;;8.40;5.67;;;49.30;1.00;;;;;;5104848;28;20430;-82
2023/05/30 09:00:42;;;;;;;9.73;6.80;;;49.50;1.00;;;;;;5111376;28;20428;-84
2023/05/30 09:03:09;;;;;;;11.80;5.97;;;49.10;1.00;;;;;;5118757;28;20477;-82
2023/05/30 09:05:35;;;;;;;7.83;5.93;;;48.90;1.00;;;;;;5113031;28;20481;-83
2023/05/30 09:08:10;;;;;;;9.40;5.53;;;48.90;1.00;;;;;;5105287;28;20438;-84
2023/05/30 09:10:48;;;;;;;10.70;6.50;;;49.30;1.00;;;;;;5108199;28;20466;-84
2023/05/30 09:13:14;;;;;;;9.60;5.80;;;49.40;1.00;;;;;;5118559;28;20464;-85
2023/05/30 09:15:40;;;;;;;9.70;6.27;;;49.30;1.00;;;;;;5112244;28;20457;-84
2023/05/30 09:18:05;;;;;;;9.10;6.00;;;49.10;1.00;;;;;;5115184;28;20990;-84
2023/05/30 09:20:31;;;;;;;7.07;5.20;;;48.90;1.00;;;;;;5123546;28;20919;-86
2023/05/30 09:22:58;;;;;;;13.10;6.40;;;48.90;1.00;;;;;;5110940;28;20256;-83
2023/05/30 09:25:24;;;;;;;13.37;5.50;;;48.80;1.00;;;;;;5100470;28;20975;-85
2023/05/30 09:27:51;;;;;;;13.73;6.77;;;48.70;1.00;;;;;;5109403;28;20429;-83
2023/05/30 09:30:19;;;;;;;9.40;6.23;;;48.60;1.00;;;;;;5114690;28;20266;-86
2023/05/30 09:33:01;;;;;;;9.13;6.23;;;48.60;1.00;;;;;;5106807;28;20450;-84
2023/05/30 09:35:27;;;;;;;17.20;7.40;;;48.50;1.00;;;;;;5111718;28;20462;-83
2023/05/30 09:37:52;;;;;;;9.43;6.47;;;48.30;1.00;;;;;;5106793;28;20895;-84
2023/05/30 09:40:18;;;;;;;13.33;7.00;;;47.50;1.00;;;;;;5117731;28;20223;-82
2023/05/30 09:42:45;;;;;;;20.80;7.17;;;47.00;1.00;;;;;;5106505;28;20179;-84
2023/05/30 09:45:17;;;;;;;20.23;7.53;;;46.80;1.00;;;;;;5103937;28;20180;-83
2023/05/30 09:47:48;;;;;;;11.33;6.63;;;46.90;1.00;;;;;;5105282;28;20912;-83
2023/05/30 09:50:17;;;;;;;9.30;6.20;;;46.90;1.00;;;;;;5106176;28;20429;-84
2023/05/30 09:52:44;;;;;;;13.07;5.30;;;46.70;1.00;;;;;;5117797;28;20441;-84
2023/05/30 09:55:13;;;;;;;8.80;6.20;;;46.40;1.00;;;;;;5115460;28;20437;-84
2023/05/30 09:57:40;;;;;;;6.30;5.20;;;46.00;1.00;;;;;;5112743;28;20545;-83
2023/05/30 10:00:11;;;;;;;7.50;6.13;;;45.70;1.00;;;;;;5102031;28;21115;-86
2023/05/30 10:02:42;;;;;;;9.87;5.83;;;45.40;1.00;;;;;;5106970;28;20449;-84
2023/05/30 10:05:18;;;;;;;11.40;5.40;;;45.30;1.00;;;;;;5106450;28;20417;-82
2023/05/30 10:07:46;;;;;;;9.70;4.87;;;45.00;1.00;;;;;;5106717;28;20490;-83
2023/05/30 10:10:13;;;;;;;9.43;5.60;;;44.70;1.00;;;;;;5106086;28;20429;-84
2023/05/30 10:12:39;;;;;;;10.10;5.50;;;44.40;1.00;;;;;;5112620;28;20436;-84
2023/05/30 10:15:07;;;;;;;9.93;4.80;;;44.30;1.00;;;;;;5110578;28;20442;-83
2023/05/30 10:17:36;;;;;;;8.30;4.57;;;44.40;1.00;;;;;;5103373;28;20457;-85
2023/05/30 10:20:06;;;;;;;10.37;5.30;;;43.80;1.00;;;;;;5105814;28;20991;-85
2023/05/30 10:22:39;;;;;;;10.80;5.10;;;43.40;1.00;;;;;;5115972;28;20462;-84
2023/05/30 10:25:06;;;;;;;9.87;4.57;;;42.90;1.00;;;;;;5110691;28;20884;-83
2023/05/30 10:27:42;;;;;;;8.50;4.87;;;42.50;1.00;;;;;;5107630;28;20774;-85
2023/05/30 10:30:11;;;;;;;9.60;4.90;;;42.20;1.00;;;;;;5108065;28;20463;-84
2023/05/30 10:32:38;;;;;;;8.00;4.83;;;42.00;1.00;;;;;;5109104;28;20441;-83
2023/05/30 10:35:25;;;;;;;8.60;4.50;;;41.90;1.00;;;;;;5107594;28;20995;-83
2023/05/30 10:37:51;;;;;;;10.73;4.50;;;42.10;1.00;;;;;;5107997;28;20456;-83
2023/05/30 10:40:33;;;;;;;12.87;5.07;;;42.10;1.00;;;;;;5109411;28;20468;-85
2023/05/30 10:43:14;;;;;;;8.33;4.37;;;42.30;1.00;;;;;;5114473;28;20444;-84
2023/05/30 10:45:58;;;;;;;5.60;3.90;;;42.20;1.00;;;;;;5113616;28;20799;-83
2023/05/30 10:48:44;;;;;;;10.30;4.37;;;41.90;1.00;;;;;;5108833;28;20857;-83
2023/05/30 10:51:13;;;;;;;7.93;4.00;;;41.60;1.00;;;;;;5097080;28;20468;-83
2023/05/30 10:53:47;;;;;;;7.60;4.20;;;41.40;1.00;;;;;;5106943;28;20524;-85
2023/05/30 10:56:34;;;;;;;10.00;5.07;;;41.20;1.00;;;;;;5101695;28;20558;-84
2023/05/30 10:59:02;;;;;;;7.80;4.00;;;41.00;1.00;;;;;;5097673;28;20469;-83
2023/05/30 11:01:32;;;;;;;10.77;4.60;;;40.80;1.00;;;;;;5111677;28;20442;-84
2023/05/30 11:04:05;;;;;;;9.70;4.50;;;40.80;1.00;;;;;;5096452;28;20424;-83
2023/05/30 11:06:34;;;;;;;7.07;4.43;;;40.60;1.00;;;;;;5110298;28;20488;-83
2023/05/30 11:09:16;;;;;;;5.83;4.03;;;40.10;1.00;;;;;;5102860;28;20479;-84
2023/05/30 11:11:43;;;;;;;7.80;4.17;;;40.10;1.00;;;;;;5101792;28;20914;-84
2023/05/30 11:14:10;;;;;;;8.17;4.70;;;39.90;1.00;;;;;;5099051;28;20834;-83
2023/05/30 11:16:55;;;;;;;10.43;4.60;;;40.10;1.00;;;;;;5100276;28;20434;-85
2023/05/30 11:19:36;;;;;;;7.30;4.07;;;40.10;1.00;;;;;;5112820;28;20472;-83
2023/05/30 11:22:10;;;;;;;9.37;4.40;;;40.00;1.00;;;;;;5100350;28;20418;-83
2023/05/30 11:24:36;;;;;;;8.67;4.13;;;39.80;1.00;;;;;;5099888;28;21018;-85
2023/05/30 11:27:07;;;;;;;11.83;3.83;;;39.70;1.00;;;;;;5099338;28;20437;-84
2023/05/30 11:29:47;;;;;;;7.77;4.10;;;39.40;1.00;;;;;;5098691;28;20180;-84
2023/05/30 11:32:17;;;;;;;9.30;3.77;;;39.00;1.00;;;;;;5099440;28;20516;-85
2023/05/30 11:34:42;;;;;;;13.63;4.40;;;38.80;1.00;;;;;;5099423;28;20432;-81
2023/05/30 11:37:08;;;;;;;16.93;4.87;;;38.70;1.00;;;;;;5098689;28;20537;-83
2023/05/30 11:39:34;;;;;;;6.47;3.90;;;38.50;1.00;;;;;;5101207;28;20231;-85
2023/05/30 11:42:01;;;;;;;8.73;4.00;;;38.60;1.00;;;;;;5105986;28;20180;-84
2023/05/30 11:44:31;;;;;;;12.20;5.70;;;38.40;1.00;;;;;;5110986;28;20436;-85
2023/05/30 11:47:01;;;;;;;9.43;4.40;;;37.50;1.00;;;;;;5100376;28;20454;-84
2023/05/30 11:49:27;;;;;;;10.60;4.13;;;37.20;1.00;;;;;;5100376;28;20411;-85
2023/05/30 11:51:53;;;;;;;9.83;3.30;;;37.20;1.00;;;;;;5102620;28;20437;-84
2023/05/30 11:54:19;;;;;;;9.33;3.57;;;36.70;1.00;;;;;;5102145;28;20448;-86
2023/05/30 11:56:47;;;;;;;7.70;3.30;;;36.60;1.00;;;;;;5107648;28;20197;-83
2023/05/30 11:59:17;;;;;;;10.37;4.20;;;36.30;1.00;;;;;;5115719;28;20456;-85
2023/05/30 12:01:42;;;;;;;7.40;3.83;;;35.90;1.00;;;;;;5113096;28;21028;-84
2023/05/30 12:04:08;;;;;;;10.60;4.20;;;35.70;1.00;;;;;;5111126;28;20453;-84
2023/05/30 12:06:34;;;;;;;10.03;3.87;;;35.50;1.00;;;;;;5109501;28;20204;-84
2023/05/30 12:08:59;;;;;;;9.23;4.47;;;35.40;1.00;;;;;;5105647;28;20275;-84
2023/05/30 12:11:25;;;;;;;8.50;4.47;;;35.40;1.00;;;;;;5114233;28;20421;-84
2023/05/30 12:13:54;;;;;;;7.53;3.87;;;35.70;1.00;;;;;;5119680;28;20199;-85
2023/05/30 12:16:20;;;;;;;8.67;4.80;;;36.00;1.00;;;;;;5115305;28;20208;-83
2023/05/30 12:18:46;;;;;;;8.87;4.10;;;36.00;1.00;;;;;;5107917;28;20478;-82
2023/05/30 12:21:14;;;;;;;7.87;4.00;;;36.30;1.00;;;;;;5098998;28;20267;-85
2023/05/30 12:23:41;;;;;;;9.00;4.93;;;36.10;1.00;;;;;;5116137;28;20965;-84
2023/05/30 12:26:06;;;;;;;7.10;4.50;;;35.60;1.00;;;;;;5108682;28;20892;-84
2023/05/30 12:28:33;;;;;;;9.77;4.60;;;35.30;1.00;;;;;;5116056;28;20420;-84
2023/05/30 12:30:58;;;;;;;11.80;5.20;;;34.60;1.00;;;;;;5110841;28;20160;-85
2023/05/30 12:33:24;;;;;;;11.20;3.77;;;34.10;1.00;;;;;;5112645;28;20444;-83
2023/05/30 12:35:54;;;;;;;8.90;3.90;;;34.00;1.00;;;;;;5122723;28;20203;-85
2023/05/30 12:38:21;;;;;;;9.47;4.83;;;34.10;1.00;;;;;;5125088;28;20255;-84
2023/05/30 12:40:48;;;;;;;9.70;4.60;;;33.70;1.00;;;;;;5123556;28;20426;-84
2023/05/30 12:43:27;;;;;;;10.73;5.20;;;33.70;1.00;;;;;;5113155;28;20429;-84
2023/05/30 12:45:53;;;;;;;10.13;4.83;;;33.80;1.00;;;;;;5120952;28;21033;-84
2023/05/30 12:48:18;;;;;;;9.60;5.00;;;34.00;1.00;;;;;;5118560;28;20489;-86